sensor_id;sensor_type;location;lat;lon;timestamp;temperature;humidity
19952;DHT22;10137;49.406;19.484;2023-02-25T00:01:35;6.50;99.90
19952;DHT22;10137;49.406;19.484;2023-02-25T00:04:04;6.50;99.90
19952;DHT22;10137;49.406;19.484;2023-02-25T00:06:32;6.40;99.90
19952;DHT22;10137;49.406;19.484;2023-02-25T00:08:59;6.50;99.90
19952;DHT22;10137;49.406;19.484;2023-02-25T00:11:27;6.40;99.90
19952;DHT22;10137;49.406;19.484;2023-02-25T00:14:00;6.40;99.90
19952;DHT22;10137;49.406;19.484;2023-02-25T00:16:27;6.40;99.90
19952;DHT22;10137;49.406;19.484;2023-02-25T00:19:03;6.30;99.90
19952;DHT22;10137;49.406;19.484;2023-02-25T00:21:33;6.40;99.90
19952;DHT22;10137;49.406;19.484;2023-02-25T00:24:01;6.30;99.90
19952;DHT22;10137;49.406;19.484;2023-02-25T00:26:30;6.30;99.90
19952;DHT22;10137;49.406;19.484;2023-02-25T00:28:59;6.30;99.90
19952;DHT22;10137;49.406;19.484;2023-02-25T00:31:26;6.30;99.90
19952;DHT22;10137;49.406;19.484;2023-02-25T00:33:54;6.30;99.90
19952;DHT22;10137;49.406;19.484;2023-02-25T00:36:24;6.20;99.90
19952;DHT22;10137;49.406;19.484;2023-02-25T00:38:54;6.30;99.90
19952;DHT22;10137;49.406;19.484;2023-02-25T00:41:26;6.20;99.90
19952;DHT22;10137;49.406;19.484;2023-02-25T00:43:56;6.20;99.90
19952;DHT22;10137;49.406;19.484;2023-02-25T00:46:31;6.10;99.90
19952;DHT22;10137;49.406;19.484;2023-02-25T00:49:00;6.10;99.90
19952;DHT22;10137;49.406;19.484;2023-02-25T00:51:29;6.00;99.90
19952;DHT22;10137;49.406;19.484;2023-02-25T00:53:58;6.10;99.90
19952;DHT22;10137;49.406;19.484;2023-02-25T00:56:26;6.00;99.90
19952;DHT22;10137;49.406;19.484;2023-02-25T00:58:54;6.00;99.90
19952;DHT22;10137;49.406;19.484;2023-02-25T01:01:30;6.00;99.90
19952;DHT22;10137;49.406;19.484;2023-02-25T01:04:04;6.00;99.90
19952;DHT22;10137;49.406;19.484;2023-02-25T01:06:33;6.10;99.90
19952;DHT22;10137;49.406;19.484;2023-02-25T01:09:05;6.00;99.90
19952;DHT22;10137;49.406;19.484;2023-02-25T01:11:42;6.00;99.90
19952;DHT22;10137;49.406;19.484;2023-02-25T01:14:14;6.00;99.90
19952;DHT22;10137;49.406;19.484;2023-02-25T01:16:46;6.00;99.90
19952;DHT22;10137;49.406;19.484;2023-02-25T01:19:17;6.00;99.90
19952;DHT22;10137;49.406;19.484;2023-02-25T01:21:51;5.90;99.90
19952;DHT22;10137;49.406;19.484;2023-02-25T01:24:21;5.80;99.90
19952;DHT22;10137;49.406;19.484;2023-02-25T01:26:51;5.90;99.90
19952;DHT22;10137;49.406;19.484;2023-02-25T01:29:21;5.80;99.90
19952;DHT22;10137;49.406;19.484;2023-02-25T01:31:56;5.80;99.90
19952;DHT22;10137;49.406;19.484;2023-02-25T01:34:25;5.70;99.90
19952;DHT22;10137;49.406;19.484;2023-02-25T01:36:55;5.60;99.90
19952;DHT22;10137;49.406;19.484;2023-02-25T01:39:23;5.50;99.90
19952;DHT22;10137;49.406;19.484;2023-02-25T01:41:57;5.50;99.90
19952;DHT22;10137;49.406;19.484;2023-02-25T01:44:30;5.40;99.90
19952;DHT22;10137;49.406;19.484;2023-02-25T01:47:00;5.50;99.90
19952;DHT22;10137;49.406;19.484;2023-02-25T01:49:33;5.40;99.90
19952;DHT22;10137;49.406;19.484;2023-02-25T01:52:05;5.40;99.90
19952;DHT22;10137;49.406;19.484;2023-02-25T01:54:35;5.40;99.90
19952;DHT22;10137;49.406;19.484;2023-02-25T01:57:06;5.30;99.90
19952;DHT22;10137;49.406;19.484;2023-02-25T01:59:35;5.30;99.90
19952;DHT22;10137;49.406;19.484;2023-02-25T02:02:07;5.20;99.90
19952;DHT22;10137;49.406;19.484;2023-02-25T02:04:36;5.10;99.90
19952;DHT22;10137;49.406;19.484;2023-02-25T02:07:05;5.10;99.90
19952;DHT22;10137;49.406;19.484;2023-02-25T02:09:34;5.00;99.90
19952;DHT22;10137;49.406;19.484;2023-02-25T02:12:04;4.90;99.90
19952;DHT22;10137;49.406;19.484;2023-02-25T02:14:37;5.00;99.90
19952;DHT22;10137;49.406;19.484;2023-02-25T02:17:23;4.90;99.90
19952;DHT22;10137;49.406;19.484;2023-02-25T02:20:05;4.90;99.90
19952;DHT22;10137;49.406;19.484;2023-02-25T02:22:51;4.90;99.90
19952;DHT22;10137;49.406;19.484;2023-02-25T02:29:21;4.80;99.90
19952;DHT22;10137;49.406;19.484;2023-02-25T02:32:07;4.80;99.90
19952;DHT22;10137;49.406;19.484;2023-02-25T02:34:43;4.70;99.90
19952;DHT22;10137;49.406;19.484;2023-02-25T02:37:28;4.70;99.90
19952;DHT22;10137;49.406;19.484;2023-02-25T02:40:23;4.70;99.90
19952;DHT22;10137;49.406;19.484;2023-02-25T02:43:17;4.80;99.90
19952;DHT22;10137;49.406;19.484;2023-02-25T02:45:51;4.80;99.90
19952;DHT22;10137;49.406;19.484;2023-02-25T02:48:31;4.80;99.90
19952;DHT22;10137;49.406;19.484;2023-02-25T02:51:07;4.80;99.90
19952;DHT22;10137;49.406;19.484;2023-02-25T02:53:40;4.80;99.90
19952;DHT22;10137;49.406;19.484;2023-02-25T02:56:15;4.80;99.90
19952;DHT22;10137;49.406;19.484;2023-02-25T02:58:45;4.70;99.90
19952;DHT22;10137;49.406;19.484;2023-02-25T03:01:17;4.70;99.90
19952;DHT22;10137;49.406;19.484;2023-02-25T03:03:59;4.70;99.90
19952;DHT22;10137;49.406;19.484;2023-02-25T03:06:32;4.70;99.90
19952;DHT22;10137;49.406;19.484;2023-02-25T03:09:08;4.70;99.90
19952;DHT22;10137;49.406;19.484;2023-02-25T03:11:39;4.70;99.90
19952;DHT22;10137;49.406;19.484;2023-02-25T03:14:10;4.70;99.90
19952;DHT22;10137;49.406;19.484;2023-02-25T03:16:41;4.70;99.90
19952;DHT22;10137;49.406;19.484;2023-02-25T03:19:18;4.80;99.90
19952;DHT22;10137;49.406;19.484;2023-02-25T03:21:53;4.80;99.90
19952;DHT22;10137;49.406;19.484;2023-02-25T03:24:34;4.70;99.90
19952;DHT22;10137;49.406;19.484;2023-02-25T03:27:23;4.70;99.90
19952;DHT22;10137;49.406;19.484;2023-02-25T03:29:52;4.70;99.90
19952;DHT22;10137;49.406;19.484;2023-02-25T03:32:23;4.70;99.90
19952;DHT22;10137;49.406;19.484;2023-02-25T03:35:00;4.70;99.90
19952;DHT22;10137;49.406;19.484;2023-02-25T03:37:32;4.70;99.90
19952;DHT22;10137;49.406;19.484;2023-02-25T03:40:05;4.60;99.90
19952;DHT22;10137;49.406;19.484;2023-02-25T03:42:43;4.70;99.90
19952;DHT22;10137;49.406;19.484;2023-02-25T03:45:14;4.60;99.90
19952;DHT22;10137;49.406;19.484;2023-02-25T03:47:43;4.60;99.90
19952;DHT22;10137;49.406;19.484;2023-02-25T03:52:48;4.50;99.90
19952;DHT22;10137;49.406;19.484;2023-02-25T03:55:19;4.60;99.90
19952;DHT22;10137;49.406;19.484;2023-02-25T03:57:50;4.60;99.90
19952;DHT22;10137;49.406;19.484;2023-02-25T04:00:21;4.60;99.90
19952;DHT22;10137;49.406;19.484;2023-02-25T04:02:50;4.60;99.90
19952;DHT22;10137;49.406;19.484;2023-02-25T04:05:22;4.60;99.90
19952;DHT22;10137;49.406;19.484;2023-02-25T04:07:55;4.70;99.90
19952;DHT22;10137;49.406;19.484;2023-02-25T04:10:23;4.70;99.90
19952;DHT22;10137;49.406;19.484;2023-02-25T04:12:53;4.70;99.90
19952;DHT22;10137;49.406;19.484;2023-02-25T04:15:21;4.70;99.90
19952;DHT22;10137;49.406;19.484;2023-02-25T04:17:49;4.50;99.90
19952;DHT22;10137;49.406;19.484;2023-02-25T04:20:25;4.60;99.90
19952;DHT22;10137;49.406;19.484;2023-02-25T04:22:55;4.50;99.90
19952;DHT22;10137;49.406;19.484;2023-02-25T04:25:26;4.50;99.90
19952;DHT22;10137;49.406;19.484;2023-02-25T04:27:54;4.40;99.90
19952;DHT22;10137;49.406;19.484;2023-02-25T04:30:23;4.50;99.90
19952;DHT22;10137;49.406;19.484;2023-02-25T04:32:52;4.50;99.90
19952;DHT22;10137;49.406;19.484;2023-02-25T04:35:19;4.40;99.90
19952;DHT22;10137;49.406;19.484;2023-02-25T04:37:53;4.40;99.90
19952;DHT22;10137;49.406;19.484;2023-02-25T04:40:23;4.40;99.90
19952;DHT22;10137;49.406;19.484;2023-02-25T04:42:51;4.30;99.90
19952;DHT22;10137;49.406;19.484;2023-02-25T04:45:20;4.30;99.90
19952;DHT22;10137;49.406;19.484;2023-02-25T04:47:52;4.40;99.90
19952;DHT22;10137;49.406;19.484;2023-02-25T04:50:24;4.30;99.90
19952;DHT22;10137;49.406;19.484;2023-02-25T04:52:58;4.20;99.90
19952;DHT22;10137;49.406;19.484;2023-02-25T04:55:28;4.30;99.90
19952;DHT22;10137;49.406;19.484;2023-02-25T04:57:55;4.20;99.90
19952;DHT22;10137;49.406;19.484;2023-02-25T05:00:26;4.00;99.90
19952;DHT22;10137;49.406;19.484;2023-02-25T05:02:55;4.10;99.90
19952;DHT22;10137;49.406;19.484;2023-02-25T05:05:25;4.00;99.90
19952;DHT22;10137;49.406;19.484;2023-02-25T05:07:53;4.10;99.90
19952;DHT22;10137;49.406;19.484;2023-02-25T05:10:22;4.00;99.90
19952;DHT22;10137;49.406;19.484;2023-02-25T05:12:51;3.90;99.90
19952;DHT22;10137;49.406;19.484;2023-02-25T05:15:19;3.70;99.90
19952;DHT22;10137;49.406;19.484;2023-02-25T05:17:47;3.70;99.90
19952;DHT22;10137;49.406;19.484;2023-02-25T05:20:15;3.50;99.90
19952;DHT22;10137;49.406;19.484;2023-02-25T05:22:43;3.50;99.90
19952;DHT22;10137;49.406;19.484;2023-02-25T05:25:10;3.50;99.90
19952;DHT22;10137;49.406;19.484;2023-02-25T05:27:40;3.50;99.90
19952;DHT22;10137;49.406;19.484;2023-02-25T05:30:10;3.50;99.90
19952;DHT22;10137;49.406;19.484;2023-02-25T05:32:37;3.50;99.90
19952;DHT22;10137;49.406;19.484;2023-02-25T05:35:08;3.50;99.90
19952;DHT22;10137;49.406;19.484;2023-02-25T05:37:37;3.40;99.90
19952;DHT22;10137;49.406;19.484;2023-02-25T05:40:07;3.30;99.90
19952;DHT22;10137;49.406;19.484;2023-02-25T05:42:36;3.20;99.90
19952;DHT22;10137;49.406;19.484;2023-02-25T05:45:07;3.30;99.90
19952;DHT22;10137;49.406;19.484;2023-02-25T05:47:38;3.40;99.90
19952;DHT22;10137;49.406;19.484;2023-02-25T05:50:06;3.50;99.90
19952;DHT22;10137;49.406;19.484;2023-02-25T05:52:33;3.40;99.90
19952;DHT22;10137;49.406;19.484;2023-02-25T05:55:02;3.40;99.90
19952;DHT22;10137;49.406;19.484;2023-02-25T05:57:36;3.40;99.90
19952;DHT22;10137;49.406;19.484;2023-02-25T06:00:09;3.50;99.90
19952;DHT22;10137;49.406;19.484;2023-02-25T06:02:40;3.40;99.90
19952;DHT22;10137;49.406;19.484;2023-02-25T06:05:10;3.50;99.90
19952;DHT22;10137;49.406;19.484;2023-02-25T06:07:40;3.50;99.90
19952;DHT22;10137;49.406;19.484;2023-02-25T06:10:11;3.30;99.90
19952;DHT22;10137;49.406;19.484;2023-02-25T06:12:39;3.30;99.90
19952;DHT22;10137;49.406;19.484;2023-02-25T06:15:10;3.40;99.90
19952;DHT22;10137;49.406;19.484;2023-02-25T06:17:41;3.40;99.90
19952;DHT22;10137;49.406;19.484;2023-02-25T06:20:10;3.40;99.90
19952;DHT22;10137;49.406;19.484;2023-02-25T06:22:42;3.40;99.90
19952;DHT22;10137;49.406;19.484;2023-02-25T06:25:13;3.20;99.90
19952;DHT22;10137;49.406;19.484;2023-02-25T06:27:45;3.30;99.90
19952;DHT22;10137;49.406;19.484;2023-02-25T06:30:18;3.20;99.90
19952;DHT22;10137;49.406;19.484;2023-02-25T06:32:47;3.20;99.90
19952;DHT22;10137;49.406;19.484;2023-02-25T06:35:17;3.20;99.90
19952;DHT22;10137;49.406;19.484;2023-02-25T06:37:48;3.30;99.90
19952;DHT22;10137;49.406;19.484;2023-02-25T06:40:18;3.30;99.90
19952;DHT22;10137;49.406;19.484;2023-02-25T06:42:47;3.20;99.90
19952;DHT22;10137;49.406;19.484;2023-02-25T06:45:24;3.00;99.90
19952;DHT22;10137;49.406;19.484;2023-02-25T06:47:53;3.00;99.90
19952;DHT22;10137;49.406;19.484;2023-02-25T06:50:21;2.90;99.90
19952;DHT22;10137;49.406;19.484;2023-02-25T06:52:50;2.90;99.90
19952;DHT22;10137;49.406;19.484;2023-02-25T06:55:18;2.80;99.90
19952;DHT22;10137;49.406;19.484;2023-02-25T06:57:46;2.70;99.90
19952;DHT22;10137;49.406;19.484;2023-02-25T07:00:14;2.90;99.90
19952;DHT22;10137;49.406;19.484;2023-02-25T07:02:47;2.80;99.90
19952;DHT22;10137;49.406;19.484;2023-02-25T07:05:16;2.70;99.90
19952;DHT22;10137;49.406;19.484;2023-02-25T07:07:44;2.80;99.90
19952;DHT22;10137;49.406;19.484;2023-02-25T07:10:12;2.90;99.90
19952;DHT22;10137;49.406;19.484;2023-02-25T07:12:40;2.80;99.90
19952;DHT22;10137;49.406;19.484;2023-02-25T07:15:09;2.80;99.90
19952;DHT22;10137;49.406;19.484;2023-02-25T07:17:37;2.80;99.90
19952;DHT22;10137;49.406;19.484;2023-02-25T07:20:07;2.90;99.90
19952;DHT22;10137;49.406;19.484;2023-02-25T07:22:35;3.10;99.90
19952;DHT22;10137;49.406;19.484;2023-02-25T07:25:03;3.40;99.90
19952;DHT22;10137;49.406;19.484;2023-02-25T07:27:32;3.90;99.90
19952;DHT22;10137;49.406;19.484;2023-02-25T07:30:01;4.20;99.90
19952;DHT22;10137;49.406;19.484;2023-02-25T07:32:29;4.60;99.90
19952;DHT22;10137;49.406;19.484;2023-02-25T07:34:58;4.90;99.90
19952;DHT22;10137;49.406;19.484;2023-02-25T07:37:26;5.30;99.90
19952;DHT22;10137;49.406;19.484;2023-02-25T07:39:53;5.50;99.90
19952;DHT22;10137;49.406;19.484;2023-02-25T07:42:24;5.70;99.90
19952;DHT22;10137;49.406;19.484;2023-02-25T07:44:52;6.10;99.90
19952;DHT22;10137;49.406;19.484;2023-02-25T07:47:21;6.30;99.90
19952;DHT22;10137;49.406;19.484;2023-02-25T07:49:49;6.40;99.90
19952;DHT22;10137;49.406;19.484;2023-02-25T07:52:16;6.20;99.90
19952;DHT22;10137;49.406;19.484;2023-02-25T07:54:45;6.30;99.90
19952;DHT22;10137;49.406;19.484;2023-02-25T07:57:13;6.40;99.90
19952;DHT22;10137;49.406;19.484;2023-02-25T07:59:41;6.20;99.90
19952;DHT22;10137;49.406;19.484;2023-02-25T08:02:13;6.10;99.90
19952;DHT22;10137;49.406;19.484;2023-02-25T08:04:41;5.80;99.90
19952;DHT22;10137;49.406;19.484;2023-02-25T08:07:10;5.50;99.90
19952;DHT22;10137;49.406;19.484;2023-02-25T08:09:38;5.30;99.90
19952;DHT22;10137;49.406;19.484;2023-02-25T08:12:08;5.20;99.90
19952;DHT22;10137;49.406;19.484;2023-02-25T08:14:36;5.40;99.90
19952;DHT22;10137;49.406;19.484;2023-02-25T08:17:04;5.90;99.90
19952;DHT22;10137;49.406;19.484;2023-02-25T08:19:31;6.30;99.90
19952;DHT22;10137;49.406;19.484;2023-02-25T08:21:58;6.70;99.90
19952;DHT22;10137;49.406;19.484;2023-02-25T08:24:26;7.10;99.90
19952;DHT22;10137;49.406;19.484;2023-02-25T08:26:53;7.30;99.90
19952;DHT22;10137;49.406;19.484;2023-02-25T08:29:23;7.00;99.90
19952;DHT22;10137;49.406;19.484;2023-02-25T08:31:50;6.80;99.90
19952;DHT22;10137;49.406;19.484;2023-02-25T08:34:17;6.50;99.90
19952;DHT22;10137;49.406;19.484;2023-02-25T08:36:44;6.70;99.90
19952;DHT22;10137;49.406;19.484;2023-02-25T08:39:12;6.70;99.90
19952;DHT22;10137;49.406;19.484;2023-02-25T08:41:39;6.70;99.90
19952;DHT22;10137;49.406;19.484;2023-02-25T08:44:07;6.60;99.90
19952;DHT22;10137;49.406;19.484;2023-02-25T08:46:36;6.30;99.90
19952;DHT22;10137;49.406;19.484;2023-02-25T08:49:04;6.20;99.90
19952;DHT22;10137;49.406;19.484;2023-02-25T08:51:32;5.70;99.90
19952;DHT22;10137;49.406;19.484;2023-02-25T08:54:01;5.60;99.90
19952;DHT22;10137;49.406;19.484;2023-02-25T08:56:29;5.50;99.90
19952;DHT22;10137;49.406;19.484;2023-02-25T08:58:56;5.40;99.90
19952;DHT22;10137;49.406;19.484;2023-02-25T09:01:23;5.40;99.90
19952;DHT22;10137;49.406;19.484;2023-02-25T09:03:52;5.30;99.90
19952;DHT22;10137;49.406;19.484;2023-02-25T09:06:22;5.10;99.90
19952;DHT22;10137;49.406;19.484;2023-02-25T09:08:53;4.90;99.90
19952;DHT22;10137;49.406;19.484;2023-02-25T09:11:25;5.00;99.90
19952;DHT22;10137;49.406;19.484;2023-02-25T09:13:53;4.80;99.90
19952;DHT22;10137;49.406;19.484;2023-02-25T09:16:22;4.80;99.90
19952;DHT22;10137;49.406;19.484;2023-02-25T09:18:52;4.80;99.90
19952;DHT22;10137;49.406;19.484;2023-02-25T09:21:20;4.70;99.90
19952;DHT22;10137;49.406;19.484;2023-02-25T09:23:51;4.60;99.90
19952;DHT22;10137;49.406;19.484;2023-02-25T09:26:20;4.50;99.90
19952;DHT22;10137;49.406;19.484;2023-02-25T09:28:48;4.50;99.90
19952;DHT22;10137;49.406;19.484;2023-02-25T09:31:17;4.50;99.90
19952;DHT22;10137;49.406;19.484;2023-02-25T09:33:45;4.50;99.90
19952;DHT22;10137;49.406;19.484;2023-02-25T09:36:16;4.50;99.90
19952;DHT22;10137;49.406;19.484;2023-02-25T09:38:47;4.70;99.90
19952;DHT22;10137;49.406;19.484;2023-02-25T09:41:26;4.70;99.90
19952;DHT22;10137;49.406;19.484;2023-02-25T09:44:04;4.70;99.90
19952;DHT22;10137;49.406;19.484;2023-02-25T09:46:34;4.70;99.90
19952;DHT22;10137;49.406;19.484;2023-02-25T09:49:13;4.90;99.90
19952;DHT22;10137;49.406;19.484;2023-02-25T09:51:47;5.30;99.90
19952;DHT22;10137;49.406;19.484;2023-02-25T09:54:29;5.50;99.90
19952;DHT22;10137;49.406;19.484;2023-02-25T09:57:01;5.70;99.90
19952;DHT22;10137;49.406;19.484;2023-02-25T09:59:30;6.10;99.90
19952;DHT22;10137;49.406;19.484;2023-02-25T10:02:11;6.40;99.90
19952;DHT22;10137;49.406;19.484;2023-02-25T10:04:51;6.40;99.90
19952;DHT22;10137;49.406;19.484;2023-02-25T10:07:30;6.40;99.90
19952;DHT22;10137;49.406;19.484;2023-02-25T10:10:05;6.50;99.90
19952;DHT22;10137;49.406;19.484;2023-02-25T10:12:41;6.80;99.90
19952;DHT22;10137;49.406;19.484;2023-02-25T10:15:35;7.00;99.90
19952;DHT22;10137;49.406;19.484;2023-02-25T10:18:37;6.90;99.90
19952;DHT22;10137;49.406;19.484;2023-02-25T10:21:21;6.60;99.90
19952;DHT22;10137;49.406;19.484;2023-02-25T10:24:04;6.20;99.90
19952;DHT22;10137;49.406;19.484;2023-02-25T10:26:38;6.20;99.90
19952;DHT22;10137;49.406;19.484;2023-02-25T10:29:15;6.40;99.90
19952;DHT22;10137;49.406;19.484;2023-02-25T10:31:45;6.60;99.90
19952;DHT22;10137;49.406;19.484;2023-02-25T10:34:19;6.70;99.90
19952;DHT22;10137;49.406;19.484;2023-02-25T10:36:53;6.90;99.90
19952;DHT22;10137;49.406;19.484;2023-02-25T10:39:27;6.80;99.90
19952;DHT22;10137;49.406;19.484;2023-02-25T10:41:59;6.70;99.90
19952;DHT22;10137;49.406;19.484;2023-02-25T10:44:27;6.70;99.90
19952;DHT22;10137;49.406;19.484;2023-02-25T10:47:02;6.70;99.90
19952;DHT22;10137;49.406;19.484;2023-02-25T10:49:37;6.90;99.90
19952;DHT22;10137;49.406;19.484;2023-02-25T10:52:13;7.20;99.90
19952;DHT22;10137;49.406;19.484;2023-02-25T10:54:49;7.00;99.90
19952;DHT22;10137;49.406;19.484;2023-02-25T10:57:24;6.40;99.90
19952;DHT22;10137;49.406;19.484;2023-02-25T10:59:58;6.30;99.90
19952;DHT22;10137;49.406;19.484;2023-02-25T11:02:27;6.40;99.90
19952;DHT22;10137;49.406;19.484;2023-02-25T11:04:55;6.30;99.90
19952;DHT22;10137;49.406;19.484;2023-02-25T11:07:29;6.10;99.90
19952;DHT22;10137;49.406;19.484;2023-02-25T11:10:17;6.10;99.90
19952;DHT22;10137;49.406;19.484;2023-02-25T11:12:49;6.00;99.90
19952;DHT22;10137;49.406;19.484;2023-02-25T11:15:27;5.80;99.90
19952;DHT22;10137;49.406;19.484;2023-02-25T11:17:59;5.60;99.90
19952;DHT22;10137;49.406;19.484;2023-02-25T11:20:29;5.70;99.90
19952;DHT22;10137;49.406;19.484;2023-02-25T11:22:58;5.80;99.90
19952;DHT22;10137;49.406;19.484;2023-02-25T11:25:36;5.70;99.90
19952;DHT22;10137;49.406;19.484;2023-02-25T11:28:05;6.10;99.90
19952;DHT22;10137;49.406;19.484;2023-02-25T11:30:35;6.00;99.90
19952;DHT22;10137;49.406;19.484;2023-02-25T11:33:07;5.90;99.90
19952;DHT22;10137;49.406;19.484;2023-02-25T11:35:37;5.70;99.90
19952;DHT22;10137;49.406;19.484;2023-02-25T11:38:22;5.60;99.90
19952;DHT22;10137;49.406;19.484;2023-02-25T11:40:51;5.50;99.90
19952;DHT22;10137;49.406;19.484;2023-02-25T11:43:20;5.40;99.90
19952;DHT22;10137;49.406;19.484;2023-02-25T11:45:56;5.40;99.90
19952;DHT22;10137;49.406;19.484;2023-02-25T11:48:27;5.30;99.90
19952;DHT22;10137;49.406;19.484;2023-02-25T11:51:06;5.30;99.90
19952;DHT22;10137;49.406;19.484;2023-02-25T11:53:47;5.30;99.90
19952;DHT22;10137;49.406;19.484;2023-02-25T11:56:23;5.40;99.90
19952;DHT22;10137;49.406;19.484;2023-02-25T11:59:01;5.60;99.90
19952;DHT22;10137;49.406;19.484;2023-02-25T12:01:40;5.50;99.90
19952;DHT22;10137;49.406;19.484;2023-02-25T12:04:24;5.50;99.90
19952;DHT22;10137;49.406;19.484;2023-02-25T12:07:28;5.40;99.90
19952;DHT22;10137;49.406;19.484;2023-02-25T12:10:18;5.40;99.90
19952;DHT22;10137;49.406;19.484;2023-02-25T12:13:17;5.30;99.90
19952;DHT22;10137;49.406;19.484;2023-02-25T12:19:11;5.20;99.90
19952;DHT22;10137;49.406;19.484;2023-02-25T12:22:13;4.90;99.90
19952;DHT22;10137;49.406;19.484;2023-02-25T12:25:09;4.90;99.90
19952;DHT22;10137;49.406;19.484;2023-02-25T12:28:07;5.00;99.90
19952;DHT22;10137;49.406;19.484;2023-02-25T12:33:57;5.00;99.90
19952;DHT22;10137;49.406;19.484;2023-02-25T12:36:42;4.90;99.90
19952;DHT22;10137;49.406;19.484;2023-02-25T12:39:26;5.00;99.90
19952;DHT22;10137;49.406;19.484;2023-02-25T12:42:09;5.10;99.90
19952;DHT22;10137;49.406;19.484;2023-02-25T12:47:51;5.00;99.90
19952;DHT22;10137;49.406;19.484;2023-02-25T12:50:42;5.10;99.90
19952;DHT22;10137;49.406;19.484;2023-02-25T12:53:26;5.00;99.90
19952;DHT22;10137;49.406;19.484;2023-02-25T12:56:17;5.00;99.90
19952;DHT22;10137;49.406;19.484;2023-02-25T12:59:05;4.80;99.90
19952;DHT22;10137;49.406;19.484;2023-02-25T13:01:50;4.70;99.90
19952;DHT22;10137;49.406;19.484;2023-02-25T13:10:44;4.40;99.90
19952;DHT22;10137;49.406;19.484;2023-02-25T13:13:36;4.10;99.90
19952;DHT22;10137;49.406;19.484;2023-02-25T13:16:21;3.90;99.90
19952;DHT22;10137;49.406;19.484;2023-02-25T13:19:09;3.90;99.90
19952;DHT22;10137;49.406;19.484;2023-02-25T13:21:55;4.10;99.90
19952;DHT22;10137;49.406;19.484;2023-02-25T13:27:33;4.10;99.90
19952;DHT22;10137;49.406;19.484;2023-02-25T13:30:19;4.00;99.90
19952;DHT22;10137;49.406;19.484;2023-02-25T13:32:57;4.00;99.90
19952;DHT22;10137;49.406;19.484;2023-02-25T13:35:34;4.10;99.90
19952;DHT22;10137;49.406;19.484;2023-02-25T13:41:14;4.10;99.90
19952;DHT22;10137;49.406;19.484;2023-02-25T13:47:02;4.20;99.90
19952;DHT22;10137;49.406;19.484;2023-02-25T13:50:02;4.20;99.90
19952;DHT22;10137;49.406;19.484;2023-02-25T13:52:53;4.10;99.90
19952;DHT22;10137;49.406;19.484;2023-02-25T13:58:39;4.00;99.90
19952;DHT22;10137;49.406;19.484;2023-02-25T14:01:31;3.70;99.90
19952;DHT22;10137;49.406;19.484;2023-02-25T14:04:37;3.70;99.90
19952;DHT22;10137;49.406;19.484;2023-02-25T14:10:23;3.70;99.90
19952;DHT22;10137;49.406;19.484;2023-02-25T14:13:03;3.70;99.90
19952;DHT22;10137;49.406;19.484;2023-02-25T14:15:45;3.80;99.90
19952;DHT22;10137;49.406;19.484;2023-02-25T14:18:37;3.90;99.90
19952;DHT22;10137;49.406;19.484;2023-02-25T14:21:32;3.90;99.90
19952;DHT22;10137;49.406;19.484;2023-02-25T14:24:06;3.80;99.90
19952;DHT22;10137;49.406;19.484;2023-02-25T14:26:42;3.70;99.90
19952;DHT22;10137;49.406;19.484;2023-02-25T14:29:19;3.60;99.90
19952;DHT22;10137;49.406;19.484;2023-02-25T14:32:11;3.60;99.90
19952;DHT22;10137;49.406;19.484;2023-02-25T14:34:55;3.60;99.90
19952;DHT22;10137;49.406;19.484;2023-02-25T14:37:37;3.60;99.90
19952;DHT22;10137;49.406;19.484;2023-02-25T14:40:18;3.50;99.90
19952;DHT22;10137;49.406;19.484;2023-02-25T14:43:02;3.60;99.90
19952;DHT22;10137;49.406;19.484;2023-02-25T14:45:35;3.60;99.90
19952;DHT22;10137;49.406;19.484;2023-02-25T14:48:08;3.70;99.90
19952;DHT22;10137;49.406;19.484;2023-02-25T14:50:43;3.80;99.90
19952;DHT22;10137;49.406;19.484;2023-02-25T14:53:47;3.90;99.90
19952;DHT22;10137;49.406;19.484;2023-02-25T15:02:36;3.60;99.90
19952;DHT22;10137;49.406;19.484;2023-02-25T15:05:20;3.70;99.90
19952;DHT22;10137;49.406;19.484;2023-02-25T15:08:22;3.70;99.90
19952;DHT22;10137;49.406;19.484;2023-02-25T15:11:05;3.70;99.90
19952;DHT22;10137;49.406;19.484;2023-02-25T15:13:52;3.70;99.90
19952;DHT22;10137;49.406;19.484;2023-02-25T15:16:35;3.80;99.90
19952;DHT22;10137;49.406;19.484;2023-02-25T15:22:21;3.70;99.90
19952;DHT22;10137;49.406;19.484;2023-02-25T15:24:50;3.80;99.90
19952;DHT22;10137;49.406;19.484;2023-02-25T15:27:44;3.80;99.90
19952;DHT22;10137;49.406;19.484;2023-02-25T15:30:13;3.60;99.90
19952;DHT22;10137;49.406;19.484;2023-02-25T15:33:12;3.50;99.90
19952;DHT22;10137;49.406;19.484;2023-02-25T15:35:54;3.50;99.90
19952;DHT22;10137;49.406;19.484;2023-02-25T15:38:38;3.60;99.90
19952;DHT22;10137;49.406;19.484;2023-02-25T15:41:35;3.30;99.90
19952;DHT22;10137;49.406;19.484;2023-02-25T15:44:32;3.40;99.90
19952;DHT22;10137;49.406;19.484;2023-02-25T15:47:25;3.30;99.90
19952;DHT22;10137;49.406;19.484;2023-02-25T15:49:55;3.20;99.90
19952;DHT22;10137;49.406;19.484;2023-02-25T15:52:48;3.20;99.90
19952;DHT22;10137;49.406;19.484;2023-02-25T15:55:28;3.10;99.90
19952;DHT22;10137;49.406;19.484;2023-02-25T15:57:56;3.10;99.90
19952;DHT22;10137;49.406;19.484;2023-02-25T16:00:51;3.10;99.90
19952;DHT22;10137;49.406;19.484;2023-02-25T16:03:38;3.00;99.90
19952;DHT22;10137;49.406;19.484;2023-02-25T16:06:15;3.00;99.90
19952;DHT22;10137;49.406;19.484;2023-02-25T16:08:48;3.00;99.90
19952;DHT22;10137;49.406;19.484;2023-02-25T16:11:25;3.00;99.90
19952;DHT22;10137;49.406;19.484;2023-02-25T16:13:54;3.00;99.90
19952;DHT22;10137;49.406;19.484;2023-02-25T16:16:22;3.00;99.90
19952;DHT22;10137;49.406;19.484;2023-02-25T16:18:51;3.00;99.90
19952;DHT22;10137;49.406;19.484;2023-02-25T16:21:23;3.00;99.90
19952;DHT22;10137;49.406;19.484;2023-02-25T16:23:52;3.00;99.90
19952;DHT22;10137;49.406;19.484;2023-02-25T16:26:29;3.00;99.90
19952;DHT22;10137;49.406;19.484;2023-02-25T16:29:09;2.90;99.90
19952;DHT22;10137;49.406;19.484;2023-02-25T16:31:43;2.90;99.90
19952;DHT22;10137;49.406;19.484;2023-02-25T16:34:16;2.90;99.90
19952;DHT22;10137;49.406;19.484;2023-02-25T16:36:57;2.80;99.90
19952;DHT22;10137;49.406;19.484;2023-02-25T16:39:29;2.80;99.90
19952;DHT22;10137;49.406;19.484;2023-02-25T16:42:01;2.80;99.90
19952;DHT22;10137;49.406;19.484;2023-02-25T16:44:33;2.70;99.90
19952;DHT22;10137;49.406;19.484;2023-02-25T16:47:01;2.60;99.90
19952;DHT22;10137;49.406;19.484;2023-02-25T16:49:32;2.50;99.90
19952;DHT22;10137;49.406;19.484;2023-02-25T16:52:04;2.50;99.90
19952;DHT22;10137;49.406;19.484;2023-02-25T16:54:35;2.40;99.90
19952;DHT22;10137;49.406;19.484;2023-02-25T16:57:05;2.40;99.90
19952;DHT22;10137;49.406;19.484;2023-02-25T16:59:35;2.50;99.90
19952;DHT22;10137;49.406;19.484;2023-02-25T17:02:21;2.40;99.90